Doris — 9HA2632 — position and weather

sailwx.info

Track history (hours):
 
Tides and Currents Weather Stations Pressure Air Temp Water Temp Dewpoint Dewpoint Depression Visibility Wind Speed Wind Dir Waves Ship Positions

Doris

Last reported at 2015-Jan-31 01:09 UTC. Time now 2015-Mar-01 12:37 UTC.
Position N 27°41' W 082°35'.
Warning: this ship's position is 29 days out of date.

Length 182 m; draft 8.2 m.

Type: Cargo ship. MMSI: 215080000.

Date/timePositionNaut miles runAvg speedWind from/ knotsBaromVisibWave heightAir tempDewpointWater temp
2015-Jan-31 01:09N 27°41' W 082°35'711.5
2015-Jan-31 00:33N 27°47' W 082°31'9 9.5
2015-Jan-30 23:34N 27°55' W 082°26'0 0.3
2015-Jan-30 22:33N 27°55' W 082°25'0 0.0
2015-Jan-30 21:33N 27°55' W 082°25'0 0.0
2015-Jan-30 20:33N 27°55' W 082°25'0 0.0
2015-Jan-30 19:33N 27°55' W 082°25'0 0.0
2015-Jan-30 18:33N 27°55' W 082°25'0 0.0
2015-Jan-30 17:33N 27°55' W 082°25'0 0.0
2015-Jan-30 16:33N 27°55' W 082°25'0 0.0
2015-Jan-30 15:33N 27°55' W 082°25'0 0.0
2015-Jan-30 14:33N 27°55' W 082°25'0 0.0
2015-Jan-30 13:33N 27°55' W 082°25'0 0.0
2015-Jan-30 12:33N 27°55' W 082°25'0 0.0
2015-Jan-30 11:33N 27°55' W 082°25'0 0.0
2015-Jan-30 10:33N 27°55' W 082°25'0 0.0
2015-Jan-30 09:33N 27°55' W 082°25'0 0.0
2015-Jan-30 08:33N 27°55' W 082°25'0 0.0
2015-Jan-30 07:33N 27°55' W 082°25'0 0.0
2015-Jan-30 06:33N 27°55' W 082°25'0 0.0
2015-Jan-30 05:33N 27°55' W 082°25'0 0.0
2015-Jan-30 04:33N 27°55' W 082°25'0 0.0
2015-Jan-30 03:33N 27°55' W 082°25'0 0.0
2015-Jan-30 02:33N 27°55' W 082°25'0 0.0
2015-Jan-30 01:33N 27°55' W 082°25'2 2.1
2015-Jan-30 00:33N 27°53' W 082°26'5 4.9
2015-Jan-29 23:33N 27°48' W 082°25'1 0.5
2015-Jan-29 22:32N 27°48' W 082°25'0 0.1
2015-Jan-29 21:32N 27°48' W 082°25'0 0.0
2015-Jan-29 20:32N 27°48' W 082°25'0 0.0
2015-Jan-29 19:32N 27°48' W 082°25'0 0.0
2015-Jan-29 18:32N 27°48' W 082°25'0 0.0
2015-Jan-29 17:32N 27°48' W 082°25'0 0.0
2015-Jan-29 16:32N 27°48' W 082°25'0 0.0
2015-Jan-29 15:29N 27°48' W 082°25'0 0.0
2015-Jan-29 14:32N 27°48' W 082°25'0 0.0
2015-Jan-29 13:32N 27°48' W 082°25'0 0.0
2015-Jan-29 12:32N 27°48' W 082°25'0 0.0
2015-Jan-29 11:32N 27°48' W 082°25'0 0.0
2015-Jan-29 10:32N 27°48' W 082°25'0 0.0
2015-Jan-29 09:32N 27°48' W 082°25'0 0.0
2015-Jan-29 08:32N 27°48' W 082°25'0 0.0
2015-Jan-29 07:32N 27°48' W 082°25'0 0.0
2015-Jan-29 06:32N 27°48' W 082°25'0 0.0
2015-Jan-29 05:32N 27°48' W 082°25'0 0.0
2015-Jan-29 04:32N 27°48' W 082°25'0 0.0
2015-Jan-29 03:32N 27°48' W 082°25'0 0.0
2015-Jan-29 02:32N 27°48' W 082°25'0 0.0
2015-Jan-29 01:32N 27°48' W 082°25'0 0.0
2015-Jan-29 00:32N 27°48' W 082°25'0 0.0
2015-Jan-28 23:32N 27°48' W 082°25'0 0.0
2015-Jan-28 22:32N 27°48' W 082°25'0 0.0
2015-Jan-28 21:32N 27°48' W 082°25'0 0.0
2015-Jan-28 20:32N 27°48' W 082°25'0 0.0
2015-Jan-28 19:32N 27°48' W 082°25'0 0.0
2015-Jan-28 18:32N 27°48' W 082°25'0 0.0
2015-Jan-28 17:32N 27°48' W 082°25'0 0.0
2015-Jan-28 16:32N 27°48' W 082°25'0 0.0
2015-Jan-28 15:32N 27°48' W 082°25'0 0.0
2015-Jan-28 14:32N 27°48' W 082°25'0 0.0
2015-Jan-28 13:32N 27°48' W 082°25'0 0.0
2015-Jan-28 12:29N 27°48' W 082°25'0 0.0
2015-Jan-28 11:32N 27°48' W 082°25'0 0.0
2015-Jan-28 10:32N 27°48' W 082°25'0 0.0
2015-Jan-28 09:32N 27°48' W 082°25'0 0.0
2015-Jan-28 08:32N 27°48' W 082°25'0 0.0
2015-Jan-28 07:32N 27°48' W 082°25'0 0.0
2015-Jan-28 06:32N 27°48' W 082°25'0 0.0
2015-Jan-28 05:32N 27°48' W 082°25'0 0.0
2015-Jan-28 04:32N 27°48' W 082°25'0 0.0
2015-Jan-28 03:32N 27°48' W 082°25'0 0.0
2015-Jan-28 02:32N 27°48' W 082°25'0 0.0
2015-Jan-28 01:32N 27°48' W 082°25'0 0.0
2015-Jan-28 00:32N 27°48' W 082°25'0 0.0
2015-Jan-27 23:29N 27°48' W 082°25'0 0.0
2015-Jan-27 22:32N 27°48' W 082°25'0 0.0
2015-Jan-27 21:32N 27°48' W 082°25'1 0.6
2015-Jan-27 20:33N 27°48' W 082°25'5 4.6
2015-Jan-27 19:33N 27°53' W 082°26'2 2.4
2015-Jan-27 18:33N 27°55' W 082°26'0 0.0
2015-Jan-27 17:30N 27°55' W 082°26'0 0.0
2015-Jan-27 16:33N 27°55' W 082°26'0 0.0
2015-Jan-27 15:33N 27°55' W 082°26'0 0.0
2015-Jan-27 14:33N 27°55' W 082°26'0 0.0
2015-Jan-27 13:33N 27°55' W 082°26'0 0.0
2015-Jan-27 12:33N 27°55' W 082°26'0 0.0
2015-Jan-27 11:33N 27°55' W 082°26'0 0.0
2015-Jan-27 10:33N 27°55' W 082°26'0 0.0
2015-Jan-27 09:33N 27°55' W 082°26'0 0.0
2015-Jan-27 08:33N 27°55' W 082°26'0 0.0
2015-Jan-27 07:33N 27°55' W 082°26'0 0.0
2015-Jan-27 06:33N 27°55' W 082°26'2 2.2
2015-Jan-27 05:33N 27°53' W 082°26'1310.9
2015-Jan-27 04:22N 27°42' W 082°33'  
2015-Jan-24 11:13N 25°42' W 079°30'811.5
2015-Jan-24 10:33N 25°50' W 079°30'1211.6
2015-Jan-24 09:33N 26°02' W 079°29'1211.8
2015-Jan-24 08:33N 26°13' W 079°28'2911.7
2015-Jan-24 06:04N 26°42' W 079°25'  
2015-Jan-21 07:09N 37°53' W 076°10'913.3
2015-Jan-21 06:29N 38°01' W 076°13'1513.5
2015-Jan-21 05:22N 38°16' W 076°17'2813.7
2015-Jan-21 03:20N 38°43' W 076°26'1114.5
2015-Jan-21 02:33N 38°54' W 076°24'1312.7
2015-Jan-21 01:33N 39°07' W 076°24'  
Track history (hours):
 
Tides and Currents Weather Stations Pressure Air Temp Water Temp Dewpoint Dewpoint Depression Visibility Wind Speed Wind Dir Waves Ship Positions

Doris

Last reported at 2015-Jan-31 01:09 UTC. Time now 2015-Mar-01 12:37 UTC.
Position N 27°41' W 082°35'.
Warning: this ship's position is 29 days out of date.

Length 182 m; draft 8.2 m.

Type: Cargo ship. MMSI: 215080000.

Date/timePositionNaut miles runAvg speedWind from/ knotsBaromVisibWave heightAir tempDewpointWater temp
2015-Jan-31 01:09N 27°41' W 082°35'711.5
2015-Jan-31 00:33N 27°47' W 082°31'9 9.5
2015-Jan-30 23:34N 27°55' W 082°26'0 0.3
2015-Jan-30 22:33N 27°55' W 082°25'0 0.0
2015-Jan-30 21:33N 27°55' W 082°25'0 0.0
2015-Jan-30 20:33N 27°55' W 082°25'0 0.0
2015-Jan-30 19:33N 27°55' W 082°25'0 0.0
2015-Jan-30 18:33N 27°55' W 082°25'0 0.0
2015-Jan-30 17:33N 27°55' W 082°25'0 0.0
2015-Jan-30 16:33N 27°55' W 082°25'0 0.0
2015-Jan-30 15:33N 27°55' W 082°25'0 0.0
2015-Jan-30 14:33N 27°55' W 082°25'0 0.0
2015-Jan-30 13:33N 27°55' W 082°25'0 0.0
2015-Jan-30 12:33N 27°55' W 082°25'0 0.0
2015-Jan-30 11:33N 27°55' W 082°25'0 0.0
2015-Jan-30 10:33N 27°55' W 082°25'0 0.0
2015-Jan-30 09:33N 27°55' W 082°25'0 0.0
2015-Jan-30 08:33N 27°55' W 082°25'0 0.0
2015-Jan-30 07:33N 27°55' W 082°25'0 0.0
2015-Jan-30 06:33N 27°55' W 082°25'0 0.0
2015-Jan-30 05:33N 27°55' W 082°25'0 0.0
2015-Jan-30 04:33N 27°55' W 082°25'0 0.0
2015-Jan-30 03:33N 27°55' W 082°25'0 0.0
2015-Jan-30 02:33N 27°55' W 082°25'0 0.0
2015-Jan-30 01:33N 27°55' W 082°25'2 2.1
2015-Jan-30 00:33N 27°53' W 082°26'5 4.9
2015-Jan-29 23:33N 27°48' W 082°25'1 0.5
2015-Jan-29 22:32N 27°48' W 082°25'0 0.1
2015-Jan-29 21:32N 27°48' W 082°25'0 0.0
2015-Jan-29 20:32N 27°48' W 082°25'0 0.0
2015-Jan-29 19:32N 27°48' W 082°25'0 0.0
2015-Jan-29 18:32N 27°48' W 082°25'0 0.0
2015-Jan-29 17:32N 27°48' W 082°25'0 0.0
2015-Jan-29 16:32N 27°48' W 082°25'0 0.0
2015-Jan-29 15:29N 27°48' W 082°25'0 0.0
2015-Jan-29 14:32N 27°48' W 082°25'0 0.0
2015-Jan-29 13:32N 27°48' W 082°25'0 0.0
2015-Jan-29 12:32N 27°48' W 082°25'0 0.0
2015-Jan-29 11:32N 27°48' W 082°25'0 0.0
2015-Jan-29 10:32N 27°48' W 082°25'0 0.0
2015-Jan-29 09:32N 27°48' W 082°25'0 0.0
2015-Jan-29 08:32N 27°48' W 082°25'0 0.0
2015-Jan-29 07:32N 27°48' W 082°25'0 0.0
2015-Jan-29 06:32N 27°48' W 082°25'0 0.0
2015-Jan-29 05:32N 27°48' W 082°25'0 0.0
2015-Jan-29 04:32N 27°48' W 082°25'0 0.0
2015-Jan-29 03:32N 27°48' W 082°25'0 0.0
2015-Jan-29 02:32N 27°48' W 082°25'0 0.0
2015-Jan-29 01:32N 27°48' W 082°25'0 0.0
2015-Jan-29 00:32N 27°48' W 082°25'0 0.0
2015-Jan-28 23:32N 27°48' W 082°25'0 0.0
2015-Jan-28 22:32N 27°48' W 082°25'0 0.0
2015-Jan-28 21:32N 27°48' W 082°25'0 0.0
2015-Jan-28 20:32N 27°48' W 082°25'0 0.0
2015-Jan-28 19:32N 27°48' W 082°25'0 0.0
2015-Jan-28 18:32N 27°48' W 082°25'0 0.0
2015-Jan-28 17:32N 27°48' W 082°25'0 0.0
2015-Jan-28 16:32N 27°48' W 082°25'0 0.0
2015-Jan-28 15:32N 27°48' W 082°25'0 0.0
2015-Jan-28 14:32N 27°48' W 082°25'0 0.0
2015-Jan-28 13:32N 27°48' W 082°25'0 0.0
2015-Jan-28 12:29N 27°48' W 082°25'0 0.0
2015-Jan-28 11:32N 27°48' W 082°25'0 0.0
2015-Jan-28 10:32N 27°48' W 082°25'0 0.0
2015-Jan-28 09:32N 27°48' W 082°25'0 0.0
2015-Jan-28 08:32N 27°48' W 082°25'0 0.0
2015-Jan-28 07:32N 27°48' W 082°25'0 0.0
2015-Jan-28 06:32N 27°48' W 082°25'0 0.0
2015-Jan-28 05:32N 27°48' W 082°25'0 0.0
2015-Jan-28 04:32N 27°48' W 082°25'0 0.0
2015-Jan-28 03:32N 27°48' W 082°25'0 0.0
2015-Jan-28 02:32N 27°48' W 082°25'0 0.0
2015-Jan-28 01:32N 27°48' W 082°25'0 0.0
2015-Jan-28 00:32N 27°48' W 082°25'0 0.0
2015-Jan-27 23:29N 27°48' W 082°25'0 0.0
2015-Jan-27 22:32N 27°48' W 082°25'0 0.0
2015-Jan-27 21:32N 27°48' W 082°25'1 0.6
2015-Jan-27 20:33N 27°48' W 082°25'5 4.6
2015-Jan-27 19:33N 27°53' W 082°26'2 2.4
2015-Jan-27 18:33N 27°55' W 082°26'0 0.0
2015-Jan-27 17:30N 27°55' W 082°26'0 0.0
2015-Jan-27 16:33N 27°55' W 082°26'0 0.0
2015-Jan-27 15:33N 27°55' W 082°26'0 0.0
2015-Jan-27 14:33N 27°55' W 082°26'0 0.0
2015-Jan-27 13:33N 27°55' W 082°26'0 0.0
2015-Jan-27 12:33N 27°55' W 082°26'0 0.0
2015-Jan-27 11:33N 27°55' W 082°26'0 0.0
2015-Jan-27 10:33N 27°55' W 082°26'0 0.0
2015-Jan-27 09:33N 27°55' W 082°26'0 0.0
2015-Jan-27 08:33N 27°55' W 082°26'0 0.0
2015-Jan-27 07:33N 27°55' W 082°26'0 0.0
2015-Jan-27 06:33N 27°55' W 082°26'2 2.2
2015-Jan-27 05:33N 27°53' W 082°26'1310.9
2015-Jan-27 04:22N 27°42' W 082°33'  
2015-Jan-24 11:13N 25°42' W 079°30'811.5
2015-Jan-24 10:33N 25°50' W 079°30'1211.6
2015-Jan-24 09:33N 26°02' W 079°29'1211.8
2015-Jan-24 08:33N 26°13' W 079°28'2911.7
2015-Jan-24 06:04N 26°42' W 079°25'  
2015-Jan-21 07:09N 37°53' W 076°10'913.3
2015-Jan-21 06:29N 38°01' W 076°13'1513.5
2015-Jan-21 05:22N 38°16' W 076°17'2813.7
2015-Jan-21 03:20N 38°43' W 076°26'1114.5
2015-Jan-21 02:33N 38°54' W 076°24'1312.7
2015-Jan-21 01:33N 39°07' W 076°24'  

Dump ship's entire track history